sensor_id;sensor_type;location;lat;lon;timestamp;pressure;altitude;pressure_sealevel;temperature;humidity
35878;BME280;21982;49.804;24.072;2023-06-10T00:01:07;97003.34;;;19.65;62.69
35878;BME280;21982;49.804;24.072;2023-06-10T00:03:33;97006.09;;;19.70;62.53
35878;BME280;21982;49.804;24.072;2023-06-10T00:05:58;97012.56;;;19.74;62.09
35878;BME280;21982;49.804;24.072;2023-06-10T00:08:23;96879.78;;;18.89;61.95
35878;BME280;21982;49.804;24.072;2023-06-10T00:10:49;97005.66;;;19.83;61.89
35878;BME280;21982;49.804;24.072;2023-06-10T00:13:15;96971.59;;;19.62;61.76
35878;BME280;21982;49.804;24.072;2023-06-10T00:15:42;96994.44;;;19.91;61.47
35878;BME280;21982;49.804;24.072;2023-06-10T00:18:07;96992.31;;;19.93;61.58
35878;BME280;21982;49.804;24.072;2023-06-10T00:20:35;96969.06;;;19.77;61.61
35878;BME280;21982;49.804;24.072;2023-06-10T00:23:03;96988.53;;;19.89;61.44
35878;BME280;21982;49.804;24.072;2023-06-10T00:25:28;96996.84;;;19.88;61.93
35878;BME280;21982;49.804;24.072;2023-06-10T00:27:55;96931.53;;;19.55;61.78
35878;BME280;21982;49.804;24.072;2023-06-10T00:30:20;96988.00;;;19.92;61.74
35878;BME280;21982;49.804;24.072;2023-06-10T00:32:47;96893.72;;;19.35;61.51
35878;BME280;21982;49.804;24.072;2023-06-10T00:35:12;96905.25;;;19.35;61.89
35878;BME280;21982;49.804;24.072;2023-06-10T00:37:37;96986.09;;;19.88;61.81
35878;BME280;21982;49.804;24.072;2023-06-10T00:40:04;96989.03;;;19.86;61.68
35878;BME280;21982;49.804;24.072;2023-06-10T00:42:30;96845.84;;;19.00;61.93
35878;BME280;21982;49.804;24.072;2023-06-10T00:44:56;96947.44;;;19.62;61.74
35878;BME280;21982;49.804;24.072;2023-06-10T00:47:21;96978.78;;;19.83;61.95
35878;BME280;21982;49.804;24.072;2023-06-10T00:49:48;96935.44;;;19.48;61.86
35878;BME280;21982;49.804;24.072;2023-06-10T00:52:15;96952.31;;;19.65;61.98
35878;BME280;21982;49.804;24.072;2023-06-10T00:54:42;96987.41;;;19.85;62.06
35878;BME280;21982;49.804;24.072;2023-06-10T00:57:09;96970.13;;;19.76;61.94
35878;BME280;21982;49.804;24.072;2023-06-10T00:59:35;96991.22;;;19.89;61.89
35878;BME280;21982;49.804;24.072;2023-06-10T01:02:03;96962.84;;;19.71;61.89
35878;BME280;21982;49.804;24.072;2023-06-10T01:04:28;96990.59;;;19.82;62.37
35878;BME280;21982;49.804;24.072;2023-06-10T01:14:54;96996.28;;;19.86;62.44
35878;BME280;21982;49.804;24.072;2023-06-10T01:17:20;96988.72;;;19.83;62.73
35878;BME280;21982;49.804;24.072;2023-06-10T01:19:53;96961.38;;;19.59;62.62
35878;BME280;21982;49.804;24.072;2023-06-10T01:22:20;97000.03;;;19.58;62.71
35878;BME280;21982;49.804;24.072;2023-06-10T01:24:47;96963.94;;;19.27;62.77
35878;BME280;21982;49.804;24.072;2023-06-10T01:29:54;96798.69;;;18.17;63.03
35878;BME280;21982;49.804;24.072;2023-06-10T01:32:33;96976.38;;;19.33;62.97
35878;BME280;21982;49.804;24.072;2023-06-10T01:35:01;96873.06;;;18.65;63.12
35878;BME280;21982;49.804;24.072;2023-06-10T01:37:27;97009.50;;;19.43;63.67
35878;BME280;21982;49.804;24.072;2023-06-10T01:39:57;96967.88;;;19.19;63.62
35878;BME280;21982;49.804;24.072;2023-06-10T01:42:24;96871.94;;;18.61;63.69
35878;BME280;21982;49.804;24.072;2023-06-10T01:44:50;96999.25;;;19.40;64.24
35878;BME280;21982;49.804;24.072;2023-06-10T01:47:17;96904.63;;;18.80;63.95
35878;BME280;21982;49.804;24.072;2023-06-10T01:49:43;96977.13;;;19.28;63.94
35878;BME280;21982;49.804;24.072;2023-06-10T01:52:09;97007.31;;;19.40;63.93
35878;BME280;21982;49.804;24.072;2023-06-10T01:54:34;96881.94;;;18.65;63.97
35878;BME280;21982;49.804;24.072;2023-06-10T01:57:01;96913.78;;;18.84;64.04
35878;BME280;21982;49.804;24.072;2023-06-10T01:59:27;97005.97;;;19.38;64.19
35878;BME280;21982;49.804;24.072;2023-06-10T02:01:53;96954.09;;;19.11;64.15
35878;BME280;21982;49.804;24.072;2023-06-10T02:04:19;96941.88;;;18.98;64.33
35878;BME280;21982;49.804;24.072;2023-06-10T02:06:44;97014.84;;;19.38;64.37
35878;BME280;21982;49.804;24.072;2023-06-10T02:09:10;97003.53;;;19.36;64.53
35878;BME280;21982;49.804;24.072;2023-06-10T02:11:36;96992.41;;;19.28;64.58
35878;BME280;21982;49.804;24.072;2023-06-10T02:14:02;96879.31;;;18.54;64.36
35878;BME280;21982;49.804;24.072;2023-06-10T02:16:28;96899.44;;;18.73;64.65
35878;BME280;21982;49.804;24.072;2023-06-10T02:18:55;96957.09;;;19.14;64.72
35878;BME280;21982;49.804;24.072;2023-06-10T02:21:20;96991.19;;;19.40;64.80
35878;BME280;21982;49.804;24.072;2023-06-10T02:23:46;96877.13;;;18.67;64.71
35878;BME280;21982;49.804;24.072;2023-06-10T02:26:11;96999.81;;;19.42;65.04
35878;BME280;21982;49.804;24.072;2023-06-10T02:28:36;96938.56;;;18.91;64.76
35878;BME280;21982;49.804;24.072;2023-06-10T02:31:02;97002.25;;;19.44;65.12
35878;BME280;21982;49.804;24.072;2023-06-10T02:33:27;96899.25;;;18.80;65.02
35878;BME280;21982;49.804;24.072;2023-06-10T02:35:53;96983.63;;;19.32;64.96
35878;BME280;21982;49.804;24.072;2023-06-10T02:38:18;97009.56;;;19.49;65.13
35878;BME280;21982;49.804;24.072;2023-06-10T02:40:43;96972.88;;;19.32;65.03
35878;BME280;21982;49.804;24.072;2023-06-10T02:43:09;96959.91;;;19.24;64.91
35878;BME280;21982;49.804;24.072;2023-06-10T02:45:34;96866.34;;;18.62;64.90
35878;BME280;21982;49.804;24.072;2023-06-10T02:48:00;97022.03;;;19.55;65.24
35878;BME280;21982;49.804;24.072;2023-06-10T02:50:25;96826.28;;;18.34;64.98
35878;BME280;21982;49.804;24.072;2023-06-10T02:52:51;97023.41;;;19.57;65.17
35878;BME280;21982;49.804;24.072;2023-06-10T02:55:17;96991.75;;;19.42;65.08
35878;BME280;21982;49.804;24.072;2023-06-10T03:00:18;96883.72;;;18.82;64.75
35878;BME280;21982;49.804;24.072;2023-06-10T03:02:47;96901.38;;;18.99;64.80
35878;BME280;21982;49.804;24.072;2023-06-10T03:05:14;96884.91;;;18.91;64.93
35878;BME280;21982;49.804;24.072;2023-06-10T03:07:40;97007.59;;;19.61;64.92
35878;BME280;21982;49.804;24.072;2023-06-10T03:10:06;96879.16;;;18.82;65.21
35878;BME280;21982;49.804;24.072;2023-06-10T03:15:09;96884.41;;;18.94;65.10
35878;BME280;21982;49.804;24.072;2023-06-10T03:17:35;96985.59;;;19.64;64.73
35878;BME280;21982;49.804;24.072;2023-06-10T03:20:00;96974.91;;;19.69;64.98
35878;BME280;21982;49.804;24.072;2023-06-10T03:22:27;96934.88;;;19.46;64.50
35878;BME280;21982;49.804;24.072;2023-06-10T03:24:53;96941.50;;;19.60;64.64
35878;BME280;21982;49.804;24.072;2023-06-10T03:27:18;97017.72;;;20.07;64.57
35878;BME280;21982;49.804;24.072;2023-06-10T03:29:44;96971.75;;;19.77;64.64
35878;BME280;21982;49.804;24.072;2023-06-10T03:37:19;96931.88;;;19.64;64.11
35878;BME280;21982;49.804;24.072;2023-06-10T03:39:45;96917.47;;;19.75;63.65
35878;BME280;21982;49.804;24.072;2023-06-10T03:42:11;97013.19;;;20.40;63.65
35878;BME280;21982;49.804;24.072;2023-06-10T03:44:37;97019.13;;;20.47;63.11
35878;BME280;21982;49.804;24.072;2023-06-10T03:47:04;96962.72;;;20.20;62.84
35878;BME280;21982;49.804;24.072;2023-06-10T03:49:30;96979.56;;;20.37;62.84
35878;BME280;21982;49.804;24.072;2023-06-10T03:51:55;96990.13;;;20.54;62.45
35878;BME280;21982;49.804;24.072;2023-06-10T03:54:21;96984.25;;;20.57;62.27
35878;BME280;21982;49.804;24.072;2023-06-10T03:56:47;97014.00;;;20.78;62.17
35878;BME280;21982;49.804;24.072;2023-06-10T03:59:13;97007.53;;;20.79;62.20
35878;BME280;21982;49.804;24.072;2023-06-10T04:01:39;96986.00;;;20.79;61.71
35878;BME280;21982;49.804;24.072;2023-06-10T04:04:06;97006.00;;;20.98;61.55
35878;BME280;21982;49.804;24.072;2023-06-10T04:06:31;97011.69;;;21.01;61.32
35878;BME280;21982;49.804;24.072;2023-06-10T04:08:56;97008.69;;;20.98;61.16
35878;BME280;21982;49.804;24.072;2023-06-10T04:11:23;96925.25;;;20.40;61.06
35878;BME280;21982;49.804;24.072;2023-06-10T04:13:49;96797.38;;;19.43;61.24
35878;BME280;21982;49.804;24.072;2023-06-10T04:16:15;97006.25;;;20.91;61.42
35878;BME280;21982;49.804;24.072;2023-06-10T04:18:41;96940.94;;;20.59;61.31
35878;BME280;21982;49.804;24.072;2023-06-10T04:21:07;97015.25;;;21.17;60.53
35878;BME280;21982;49.804;24.072;2023-06-10T04:23:35;96970.00;;;21.09;60.61
35878;BME280;21982;49.804;24.072;2023-06-10T04:28:35;96989.22;;;21.28;60.19
35878;BME280;21982;49.804;24.072;2023-06-10T04:31:01;96986.53;;;21.28;60.11
35878;BME280;21982;49.804;24.072;2023-06-10T04:33:30;96954.91;;;21.08;60.24
35878;BME280;21982;49.804;24.072;2023-06-10T04:35:55;97007.81;;;21.34;60.26
35878;BME280;21982;49.804;24.072;2023-06-10T04:38:22;97009.47;;;21.40;60.44
35878;BME280;21982;49.804;24.072;2023-06-10T04:43:13;97013.81;;;21.47;60.14
35878;BME280;21982;49.804;24.072;2023-06-10T04:45:38;96966.53;;;21.14;60.05
35878;BME280;21982;49.804;24.072;2023-06-10T04:48:04;97021.38;;;21.60;59.92
35878;BME280;21982;49.804;24.072;2023-06-10T04:50:30;96937.66;;;21.04;59.91
35878;BME280;21982;49.804;24.072;2023-06-10T04:55:32;96957.22;;;21.52;59.34
35878;BME280;21982;49.804;24.072;2023-06-10T04:58:00;96936.19;;;21.49;59.39
35878;BME280;21982;49.804;24.072;2023-06-10T05:00:27;96941.63;;;21.59;59.13
35878;BME280;21982;49.804;24.072;2023-06-10T05:02:52;97021.22;;;22.22;58.87
35878;BME280;21982;49.804;24.072;2023-06-10T05:05:18;96988.88;;;22.27;58.70
35878;BME280;21982;49.804;24.072;2023-06-10T05:07:44;97025.00;;;22.62;58.30
35878;BME280;21982;49.804;24.072;2023-06-10T05:10:10;97026.38;;;22.80;57.67
35878;BME280;21982;49.804;24.072;2023-06-10T05:12:38;97005.84;;;22.73;57.33
35878;BME280;21982;49.804;24.072;2023-06-10T05:15:05;96840.59;;;21.66;57.17
35878;BME280;21982;49.804;24.072;2023-06-10T05:22:34;97029.31;;;22.73;57.14
35878;BME280;21982;49.804;24.072;2023-06-10T05:25:01;97028.25;;;22.64;57.62
35878;BME280;21982;49.804;24.072;2023-06-10T05:27:26;97022.59;;;22.45;57.59
35878;BME280;21982;49.804;24.072;2023-06-10T05:29:53;97030.44;;;22.47;57.88
35878;BME280;21982;49.804;24.072;2023-06-10T05:32:20;97027.72;;;22.36;57.98
35878;BME280;21982;49.804;24.072;2023-06-10T05:34:45;97032.84;;;22.33;58.10
35878;BME280;21982;49.804;24.072;2023-06-10T05:37:12;97035.81;;;22.31;58.27
35878;BME280;21982;49.804;24.072;2023-06-10T05:39:38;96897.13;;;21.36;58.67
35878;BME280;21982;49.804;24.072;2023-06-10T05:44:29;97044.16;;;22.20;58.74
35878;BME280;21982;49.804;24.072;2023-06-10T05:46:54;97039.31;;;22.06;59.19
35878;BME280;21982;49.804;24.072;2023-06-10T05:49:19;97056.03;;;22.14;59.21
35878;BME280;21982;49.804;24.072;2023-06-10T05:51:45;97054.16;;;22.09;59.39
35878;BME280;21982;49.804;24.072;2023-06-10T05:54:10;97055.44;;;21.96;59.97
35878;BME280;21982;49.804;24.072;2023-06-10T05:56:38;97055.97;;;21.93;60.01
35878;BME280;21982;49.804;24.072;2023-06-10T05:59:04;97044.09;;;21.79;60.36
35878;BME280;21982;49.804;24.072;2023-06-10T06:14:17;97065.13;;;21.82;60.52
35878;BME280;21982;49.804;24.072;2023-06-10T06:16:43;97069.69;;;21.92;60.63
35878;BME280;21982;49.804;24.072;2023-06-10T06:19:09;97059.16;;;21.85;60.82
35878;BME280;21982;49.804;24.072;2023-06-10T06:21:36;97074.81;;;21.88;61.06
35878;BME280;21982;49.804;24.072;2023-06-10T06:24:01;97066.19;;;21.86;61.17
35878;BME280;21982;49.804;24.072;2023-06-10T06:26:27;97044.59;;;21.71;61.28
35878;BME280;21982;49.804;24.072;2023-06-10T06:28:52;97044.03;;;21.69;61.18
35878;BME280;21982;49.804;24.072;2023-06-10T06:31:18;97044.53;;;21.56;61.37
35878;BME280;21982;49.804;24.072;2023-06-10T06:33:43;97028.34;;;21.46;61.47
35878;BME280;21982;49.804;24.072;2023-06-10T06:36:08;97018.59;;;21.34;61.81
35878;BME280;21982;49.804;24.072;2023-06-10T06:38:34;97048.81;;;21.52;61.94
35878;BME280;21982;49.804;24.072;2023-06-10T06:41:00;97002.59;;;21.13;62.01
35878;BME280;21982;49.804;24.072;2023-06-10T06:43:28;97078.84;;;21.81;61.86
35878;BME280;21982;49.804;24.072;2023-06-10T06:45:54;97053.41;;;21.56;62.02
35878;BME280;21982;49.804;24.072;2023-06-10T06:48:20;97086.06;;;21.65;62.05
35878;BME280;21982;49.804;24.072;2023-06-10T06:50:45;97087.66;;;21.61;62.25
35878;BME280;21982;49.804;24.072;2023-06-10T06:53:11;97088.22;;;21.63;62.50
35878;BME280;21982;49.804;24.072;2023-06-10T06:55:37;97080.09;;;21.58;62.37
35878;BME280;21982;49.804;24.072;2023-06-10T06:58:02;97042.31;;;21.37;62.50
35878;BME280;21982;49.804;24.072;2023-06-10T07:00:29;97086.28;;;21.53;62.74
35878;BME280;21982;49.804;24.072;2023-06-10T07:02:55;96971.44;;;20.74;62.84
35878;BME280;21982;49.804;24.072;2023-06-10T07:05:22;97030.34;;;21.13;62.81
35878;BME280;21982;49.804;24.072;2023-06-10T07:07:48;97095.78;;;21.66;62.90
35878;BME280;21982;49.804;24.072;2023-06-10T07:10:13;97093.66;;;21.78;62.52
35878;BME280;21982;49.804;24.072;2023-06-10T07:12:40;97097.97;;;21.84;62.36
35878;BME280;21982;49.804;24.072;2023-06-10T07:15:05;97082.88;;;21.78;62.25
35878;BME280;21982;49.804;24.072;2023-06-10T07:17:31;97085.88;;;21.82;62.40
35878;BME280;21982;49.804;24.072;2023-06-10T07:19:56;97094.22;;;21.90;61.98
35878;BME280;21982;49.804;24.072;2023-06-10T07:22:24;97095.03;;;21.81;62.21
35878;BME280;21982;49.804;24.072;2023-06-10T07:24:50;97093.66;;;21.83;62.41
35878;BME280;21982;49.804;24.072;2023-06-10T07:27:17;97069.94;;;21.85;62.27
35878;BME280;21982;49.804;24.072;2023-06-10T07:29:43;97092.16;;;22.08;61.91
35878;BME280;21982;49.804;24.072;2023-06-10T07:32:08;97094.88;;;22.23;61.49
35878;BME280;21982;49.804;24.072;2023-06-10T07:34:33;97083.56;;;22.41;60.92
35878;BME280;21982;49.804;24.072;2023-06-10T07:36:59;97041.47;;;22.35;60.39
35878;BME280;21982;49.804;24.072;2023-06-10T07:39:24;97084.09;;;23.04;59.60
35878;BME280;21982;49.804;24.072;2023-06-10T07:41:50;97086.72;;;23.34;58.74
35878;BME280;21982;49.804;24.072;2023-06-10T07:44:17;97058.88;;;23.44;57.86
35878;BME280;21982;49.804;24.072;2023-06-10T07:46:42;97054.22;;;23.60;57.50
35878;BME280;21982;49.804;24.072;2023-06-10T07:49:07;97099.34;;;24.24;56.54
35878;BME280;21982;49.804;24.072;2023-06-10T07:51:33;97065.53;;;24.21;55.93
35878;BME280;21982;49.804;24.072;2023-06-10T07:53:58;97047.16;;;24.18;55.50
35878;BME280;21982;49.804;24.072;2023-06-10T07:56:24;97109.56;;;24.71;54.98
35878;BME280;21982;49.804;24.072;2023-06-10T07:58:50;97111.34;;;24.86;54.39
35878;BME280;21982;49.804;24.072;2023-06-10T08:01:15;97083.78;;;24.79;53.71
35878;BME280;21982;49.804;24.072;2023-06-10T08:03:42;97112.09;;;25.25;53.55
35878;BME280;21982;49.804;24.072;2023-06-10T08:06:07;97091.81;;;25.47;52.92
35878;BME280;21982;49.804;24.072;2023-06-10T08:08:33;97111.38;;;25.67;52.89
35878;BME280;21982;49.804;24.072;2023-06-10T08:10:59;97087.13;;;25.76;52.54
35878;BME280;21982;49.804;24.072;2023-06-10T08:13:25;97105.09;;;25.72;52.58
35878;BME280;21982;49.804;24.072;2023-06-10T08:15:50;97110.38;;;25.63;52.60
35878;BME280;21982;49.804;24.072;2023-06-10T08:18:16;97072.13;;;25.36;52.76
35878;BME280;21982;49.804;24.072;2023-06-10T08:20:42;97115.28;;;25.56;52.21
35878;BME280;21982;49.804;24.072;2023-06-10T08:23:07;97114.00;;;25.49;52.23
35878;BME280;21982;49.804;24.072;2023-06-10T08:25:32;97099.00;;;25.32;52.45
35878;BME280;21982;49.804;24.072;2023-06-10T08:27:58;97096.97;;;25.19;52.21
35878;BME280;21982;49.804;24.072;2023-06-10T08:30:23;97111.66;;;25.13;52.39
35878;BME280;21982;49.804;24.072;2023-06-10T08:32:49;97056.94;;;24.82;52.77
35878;BME280;21982;49.804;24.072;2023-06-10T08:35:14;97052.06;;;24.84;52.16
35878;BME280;21982;49.804;24.072;2023-06-10T08:37:40;97079.25;;;25.03;52.11
35878;BME280;21982;49.804;24.072;2023-06-10T08:40:06;97120.47;;;25.29;52.44
35878;BME280;21982;49.804;24.072;2023-06-10T08:45:01;97066.75;;;25.07;51.85
35878;BME280;21982;49.804;24.072;2023-06-10T08:47:29;97133.47;;;25.56;51.53
35878;BME280;21982;49.804;24.072;2023-06-10T08:49:57;97128.63;;;25.53;51.30
35878;BME280;21982;49.804;24.072;2023-06-10T08:52:29;97126.84;;;25.67;51.00
35878;BME280;21982;49.804;24.072;2023-06-10T08:55:03;97122.84;;;25.83;50.79
35878;BME280;21982;49.804;24.072;2023-06-10T08:57:30;97128.59;;;26.00;50.82
35878;BME280;21982;49.804;24.072;2023-06-10T08:59:57;97125.75;;;26.11;50.19
35878;BME280;21982;49.804;24.072;2023-06-10T09:02:24;97056.56;;;25.70;49.95
35878;BME280;21982;49.804;24.072;2023-06-10T09:04:50;97097.06;;;26.04;49.97
35878;BME280;21982;49.804;24.072;2023-06-10T09:07:16;97068.25;;;25.90;49.95
35878;BME280;21982;49.804;24.072;2023-06-10T09:09:43;97030.88;;;25.63;49.58
35878;BME280;21982;49.804;24.072;2023-06-10T09:12:09;97124.22;;;26.23;49.77
35878;BME280;21982;49.804;24.072;2023-06-10T09:14:35;97011.38;;;25.61;49.68
35878;BME280;21982;49.804;24.072;2023-06-10T09:17:02;97109.22;;;26.31;49.58
35878;BME280;21982;49.804;24.072;2023-06-10T09:19:28;97105.22;;;26.04;49.59
35878;BME280;21982;49.804;24.072;2023-06-10T09:21:54;97050.56;;;25.50;50.01
35878;BME280;21982;49.804;24.072;2023-06-10T09:24:22;97103.34;;;25.81;50.09
35878;BME280;21982;49.804;24.072;2023-06-10T09:26:47;96996.66;;;24.71;50.56
35878;BME280;21982;49.804;24.072;2023-06-10T09:29:13;97071.31;;;25.12;50.83
35878;BME280;21982;49.804;24.072;2023-06-10T09:31:39;97111.63;;;25.42;50.54
35878;BME280;21982;49.804;24.072;2023-06-10T09:34:12;97111.31;;;25.49;50.37
35878;BME280;21982;49.804;24.072;2023-06-10T09:36:39;97114.28;;;25.23;50.95
35878;BME280;21982;49.804;24.072;2023-06-10T09:39:05;97026.47;;;24.66;51.20
35878;BME280;21982;49.804;24.072;2023-06-10T09:41:42;96981.53;;;24.65;51.13
35878;BME280;21982;49.804;24.072;2023-06-10T09:46:48;97106.28;;;25.85;50.31
35878;BME280;21982;49.804;24.072;2023-06-10T09:49:24;97086.16;;;26.10;49.75
35878;BME280;21982;49.804;24.072;2023-06-10T09:51:54;97093.66;;;26.36;49.35
35878;BME280;21982;49.804;24.072;2023-06-10T09:54:21;97094.53;;;26.83;48.40
35878;BME280;21982;49.804;24.072;2023-06-10T09:56:51;97099.28;;;28.33;46.86
35878;BME280;21982;49.804;24.072;2023-06-10T09:59:29;97056.03;;;29.39;45.06
35878;BME280;21982;49.804;24.072;2023-06-10T10:01:58;97089.59;;;29.87;43.49
35878;BME280;21982;49.804;24.072;2023-06-10T10:04:26;97006.19;;;29.16;42.99
35878;BME280;21982;49.804;24.072;2023-06-10T10:06:53;97077.38;;;29.37;43.51
35878;BME280;21982;49.804;24.072;2023-06-10T10:09:19;97101.06;;;29.58;43.39
35878;BME280;21982;49.804;24.072;2023-06-10T10:14:19;97096.28;;;29.02;43.89
35878;BME280;21982;49.804;24.072;2023-06-10T10:16:48;97102.22;;;29.04;43.98
35878;BME280;21982;49.804;24.072;2023-06-10T10:19:18;97076.38;;;29.01;43.56
35878;BME280;21982;49.804;24.072;2023-06-10T10:22:00;97072.81;;;29.23;43.21
35878;BME280;21982;49.804;24.072;2023-06-10T10:24:34;97085.13;;;29.52;43.20
35878;BME280;21982;49.804;24.072;2023-06-10T10:29:38;97088.44;;;29.40;43.05
35878;BME280;21982;49.804;24.072;2023-06-10T10:32:06;97093.63;;;29.42;43.33
35878;BME280;21982;49.804;24.072;2023-06-10T10:37:03;97089.59;;;29.08;42.89
35878;BME280;21982;49.804;24.072;2023-06-10T10:39:29;97011.56;;;28.23;43.81
35878;BME280;21982;49.804;24.072;2023-06-10T10:41:56;97045.84;;;28.46;43.66
35878;BME280;21982;49.804;24.072;2023-06-10T10:44:24;97084.94;;;28.86;43.30
35878;BME280;21982;49.804;24.072;2023-06-10T10:46:50;97050.88;;;28.75;43.02
35878;BME280;21982;49.804;24.072;2023-06-10T10:49:17;97040.34;;;28.82;42.35
35878;BME280;21982;49.804;24.072;2023-06-10T10:51:58;97070.66;;;29.91;42.02
35878;BME280;21982;49.804;24.072;2023-06-10T10:54:35;97087.72;;;31.00;40.76
35878;BME280;21982;49.804;24.072;2023-06-10T11:02:35;97068.44;;;32.11;38.85
35878;BME280;21982;49.804;24.072;2023-06-10T11:05:04;97062.06;;;32.48;37.45
35878;BME280;21982;49.804;24.072;2023-06-10T11:07:31;97045.34;;;32.74;36.70
35878;BME280;21982;49.804;24.072;2023-06-10T11:10:11;97053.38;;;33.12;36.24
35878;BME280;21982;49.804;24.072;2023-06-10T11:15:31;97054.59;;;32.90;37.21
35878;BME280;21982;49.804;24.072;2023-06-10T11:23:07;97010.44;;;33.41;35.57
35878;BME280;21982;49.804;24.072;2023-06-10T11:25:39;97055.84;;;33.75;35.51
35878;BME280;21982;49.804;24.072;2023-06-10T11:28:17;97026.69;;;33.82;34.97
35878;BME280;21982;49.804;24.072;2023-06-10T11:30:43;96997.03;;;33.63;34.83
35878;BME280;21982;49.804;24.072;2023-06-10T11:33:08;97054.53;;;34.21;35.19
35878;BME280;21982;49.804;24.072;2023-06-10T11:35:34;97046.66;;;34.59;34.63
35878;BME280;21982;49.804;24.072;2023-06-10T11:38:01;97054.13;;;34.87;35.32
35878;BME280;21982;49.804;24.072;2023-06-10T11:40:28;97054.16;;;35.18;35.11
35878;BME280;21982;49.804;24.072;2023-06-10T11:42:57;97044.59;;;35.44;34.91
35878;BME280;21982;49.804;24.072;2023-06-10T11:45:24;97041.31;;;35.54;33.79
35878;BME280;21982;49.804;24.072;2023-06-10T11:47:59;97031.22;;;35.77;33.86
35878;BME280;21982;49.804;24.072;2023-06-10T11:50:32;97012.16;;;35.69;33.60
35878;BME280;21982;49.804;24.072;2023-06-10T11:52:58;97008.28;;;35.73;33.92
35878;BME280;21982;49.804;24.072;2023-06-10T11:55:25;97029.81;;;36.18;33.59
35878;BME280;21982;49.804;24.072;2023-06-10T11:57:51;97047.44;;;36.14;33.02
35878;BME280;21982;49.804;24.072;2023-06-10T12:00:23;97049.47;;;36.17;32.47
35878;BME280;21982;49.804;24.072;2023-06-10T12:02:57;97037.41;;;36.06;32.65
35878;BME280;21982;49.804;24.072;2023-06-10T12:05:23;97022.28;;;35.65;32.73
35878;BME280;21982;49.804;24.072;2023-06-10T12:07:48;97061.66;;;35.65;32.77
35878;BME280;21982;49.804;24.072;2023-06-10T12:10:13;97051.16;;;35.55;33.32
35878;BME280;21982;49.804;24.072;2023-06-10T12:12:39;97057.66;;;35.63;33.25
35878;BME280;21982;49.804;24.072;2023-06-10T12:15:06;97052.38;;;35.73;32.81
35878;BME280;21982;49.804;24.072;2023-06-10T12:19:58;97026.56;;;35.62;32.78
35878;BME280;21982;49.804;24.072;2023-06-10T12:22:25;97032.88;;;35.47;32.92
35878;BME280;21982;49.804;24.072;2023-06-10T12:25:01;97057.91;;;35.42;33.08
35878;BME280;21982;49.804;24.072;2023-06-10T12:27:28;97053.06;;;35.07;33.62
35878;BME280;21982;49.804;24.072;2023-06-10T12:29:55;97063.81;;;35.12;33.36
35878;BME280;21982;49.804;24.072;2023-06-10T12:32:20;97012.31;;;34.53;33.65
35878;BME280;21982;49.804;24.072;2023-06-10T12:35:02;97049.75;;;34.18;33.75
35878;BME280;21982;49.804;24.072;2023-06-10T12:37:29;97063.97;;;33.47;34.87
35878;BME280;21982;49.804;24.072;2023-06-10T12:39:54;97030.34;;;32.92;35.66
35878;BME280;21982;49.804;24.072;2023-06-10T12:42:22;97049.91;;;32.70;36.13
35878;BME280;21982;49.804;24.072;2023-06-10T12:44:53;97060.38;;;32.14;36.97
35878;BME280;21982;49.804;24.072;2023-06-10T12:47:18;97038.81;;;31.83;36.68
35878;BME280;21982;49.804;24.072;2023-06-10T12:49:44;97026.19;;;31.32;37.19
35878;BME280;21982;49.804;24.072;2023-06-10T12:52:10;97066.97;;;30.99;38.30
35878;BME280;21982;49.804;24.072;2023-06-10T12:54:35;97024.25;;;30.51;39.08
35878;BME280;21982;49.804;24.072;2023-06-10T12:57:01;96869.25;;;29.36;39.31
35878;BME280;21982;49.804;24.072;2023-06-10T12:59:27;97037.94;;;30.34;39.56
35878;BME280;21982;49.804;24.072;2023-06-10T13:01:53;97046.63;;;30.27;39.81
35878;BME280;21982;49.804;24.072;2023-06-10T13:04:19;97033.75;;;30.28;40.03
35878;BME280;21982;49.804;24.072;2023-06-10T13:06:46;97045.00;;;30.52;39.77
35878;BME280;21982;49.804;24.072;2023-06-10T13:09:13;97010.47;;;30.30;40.01
35878;BME280;21982;49.804;24.072;2023-06-10T13:11:38;97033.78;;;30.45;39.89
35878;BME280;21982;49.804;24.072;2023-06-10T13:14:04;97012.41;;;30.39;39.85
35878;BME280;21982;49.804;24.072;2023-06-10T13:16:32;97012.72;;;30.46;40.22
35878;BME280;21982;49.804;24.072;2023-06-10T13:18:58;97021.88;;;30.41;40.17
35878;BME280;21982;49.804;24.072;2023-06-10T13:21:23;96991.34;;;30.22;40.09
35878;BME280;21982;49.804;24.072;2023-06-10T13:23:49;97019.16;;;30.41;40.10
35878;BME280;21982;49.804;24.072;2023-06-10T13:26:16;97011.44;;;30.34;40.13
35878;BME280;21982;49.804;24.072;2023-06-10T13:28:45;96986.38;;;30.15;40.11
35878;BME280;21982;49.804;24.072;2023-06-10T13:31:11;96982.81;;;29.97;40.69
35878;BME280;21982;49.804;24.072;2023-06-10T13:33:36;96910.16;;;29.27;40.95
35878;BME280;21982;49.804;24.072;2023-06-10T13:36:02;97013.63;;;29.72;41.20
35878;BME280;21982;49.804;24.072;2023-06-10T13:38:28;97021.72;;;29.46;41.58
35878;BME280;21982;49.804;24.072;2023-06-10T13:40:54;96953.81;;;28.88;42.05
35878;BME280;21982;49.804;24.072;2023-06-10T13:43:20;97014.56;;;29.19;42.46
35878;BME280;21982;49.804;24.072;2023-06-10T13:45:45;96992.38;;;29.04;42.46
35878;BME280;21982;49.804;24.072;2023-06-10T13:48:10;97026.88;;;29.08;42.33
35878;BME280;21982;49.804;24.072;2023-06-10T13:50:37;96969.94;;;28.76;42.05
35878;BME280;21982;49.804;24.072;2023-06-10T13:53:02;97025.78;;;29.18;41.73
35878;BME280;21982;49.804;24.072;2023-06-10T13:55:28;97026.38;;;29.06;42.43
35878;BME280;21982;49.804;24.072;2023-06-10T13:57:53;96985.84;;;28.82;42.44
35878;BME280;21982;49.804;24.072;2023-06-10T14:00:19;97042.56;;;29.11;42.49
35878;BME280;21982;49.804;24.072;2023-06-10T14:02:44;97052.06;;;29.14;42.52
35878;BME280;21982;49.804;24.072;2023-06-10T14:05:09;97045.00;;;28.59;43.27